sensor_id;sensor_type;location;lat;lon;timestamp;P1;durP1;ratioP1;P2;durP2;ratioP2
5549;SDS011;2798;42.716;23.256;2023-04-03T00:01:45;1.80;;;1.70;;
5549;SDS011;2798;42.716;23.256;2023-04-03T00:04:10;1.40;;;1.30;;
5549;SDS011;2798;42.716;23.256;2023-04-03T00:06:35;1.90;;;1.57;;
5549;SDS011;2798;42.716;23.256;2023-04-03T00:09:01;3.00;;;1.90;;
5549;SDS011;2798;42.716;23.256;2023-04-03T00:11:26;1.40;;;1.30;;
5549;SDS011;2798;42.716;23.256;2023-04-03T00:13:51;1.60;;;1.40;;
5549;SDS011;2798;42.716;23.256;2023-04-03T00:16:16;1.60;;;1.33;;
5549;SDS011;2798;42.716;23.256;2023-04-03T00:18:42;1.57;;;1.20;;
5549;SDS011;2798;42.716;23.256;2023-04-03T00:21:08;1.70;;;1.60;;
5549;SDS011;2798;42.716;23.256;2023-04-03T00:23:34;1.37;;;1.27;;
5549;SDS011;2798;42.716;23.256;2023-04-03T00:25:59;1.67;;;1.57;;
5549;SDS011;2798;42.716;23.256;2023-04-03T00:28:25;6.57;;;1.60;;
5549;SDS011;2798;42.716;23.256;2023-04-03T00:30:51;2.40;;;1.73;;
5549;SDS011;2798;42.716;23.256;2023-04-03T00:33:17;1.60;;;1.20;;
5549;SDS011;2798;42.716;23.256;2023-04-03T00:35:42;1.63;;;1.53;;
5549;SDS011;2798;42.716;23.256;2023-04-03T00:38:07;2.97;;;2.27;;
5549;SDS011;2798;42.716;23.256;2023-04-03T00:40:37;2.07;;;1.90;;
5549;SDS011;2798;42.716;23.256;2023-04-03T00:43:05;4.13;;;2.33;;
5549;SDS011;2798;42.716;23.256;2023-04-03T00:45:36;4.90;;;2.30;;
5549;SDS011;2798;42.716;23.256;2023-04-03T00:48:02;3.73;;;2.30;;
5549;SDS011;2798;42.716;23.256;2023-04-03T00:50:30;3.87;;;3.20;;
5549;SDS011;2798;42.716;23.256;2023-04-03T00:52:57;5.20;;;2.80;;
5549;SDS011;2798;42.716;23.256;2023-04-03T00:55:22;5.63;;;2.97;;
5549;SDS011;2798;42.716;23.256;2023-04-03T00:57:48;5.03;;;2.40;;
5549;SDS011;2798;42.716;23.256;2023-04-03T01:00:15;7.20;;;3.20;;
5549;SDS011;2798;42.716;23.256;2023-04-03T01:02:41;5.33;;;3.10;;
5549;SDS011;2798;42.716;23.256;2023-04-03T01:05:06;3.53;;;3.20;;
5549;SDS011;2798;42.716;23.256;2023-04-03T01:07:32;3.97;;;2.97;;
5549;SDS011;2798;42.716;23.256;2023-04-03T01:10:00;5.07;;;2.80;;
5549;SDS011;2798;42.716;23.256;2023-04-03T01:12:26;5.20;;;3.10;;
5549;SDS011;2798;42.716;23.256;2023-04-03T01:14:53;4.83;;;3.20;;
5549;SDS011;2798;42.716;23.256;2023-04-03T01:20:14;7.53;;;3.77;;
5549;SDS011;2798;42.716;23.256;2023-04-03T01:25:09;5.40;;;3.43;;
5549;SDS011;2798;42.716;23.256;2023-04-03T01:27:34;4.50;;;3.17;;
5549;SDS011;2798;42.716;23.256;2023-04-03T01:30:00;5.30;;;3.10;;
5549;SDS011;2798;42.716;23.256;2023-04-03T01:32:25;5.60;;;2.90;;
5549;SDS011;2798;42.716;23.256;2023-04-03T01:34:50;3.10;;;2.60;;
5549;SDS011;2798;42.716;23.256;2023-04-03T01:37:15;3.97;;;2.83;;
5549;SDS011;2798;42.716;23.256;2023-04-03T01:39:41;3.93;;;2.53;;
5549;SDS011;2798;42.716;23.256;2023-04-03T01:42:06;7.60;;;3.13;;
5549;SDS011;2798;42.716;23.256;2023-04-03T01:44:31;4.33;;;2.90;;
5549;SDS011;2798;42.716;23.256;2023-04-03T01:46:57;3.63;;;2.63;;
5549;SDS011;2798;42.716;23.256;2023-04-03T01:49:22;2.27;;;2.07;;
5549;SDS011;2798;42.716;23.256;2023-04-03T01:51:47;3.17;;;2.27;;
5549;SDS011;2798;42.716;23.256;2023-04-03T01:54:12;4.70;;;2.53;;
5549;SDS011;2798;42.716;23.256;2023-04-03T01:56:38;2.63;;;2.10;;
5549;SDS011;2798;42.716;23.256;2023-04-03T01:59:04;5.17;;;2.50;;
5549;SDS011;2798;42.716;23.256;2023-04-03T02:01:29;2.17;;;1.97;;
5549;SDS011;2798;42.716;23.256;2023-04-03T02:03:55;2.93;;;2.53;;
5549;SDS011;2798;42.716;23.256;2023-04-03T02:06:20;4.40;;;2.13;;
5549;SDS011;2798;42.716;23.256;2023-04-03T02:08:45;2.60;;;2.10;;
5549;SDS011;2798;42.716;23.256;2023-04-03T02:11:11;2.80;;;2.10;;
5549;SDS011;2798;42.716;23.256;2023-04-03T02:13:36;3.37;;;2.37;;
5549;SDS011;2798;42.716;23.256;2023-04-03T02:16:10;2.33;;;2.13;;
5549;SDS011;2798;42.716;23.256;2023-04-03T02:18:36;2.30;;;2.10;;
5549;SDS011;2798;42.716;23.256;2023-04-03T02:21:01;2.80;;;2.30;;
5549;SDS011;2798;42.716;23.256;2023-04-03T02:23:27;2.37;;;2.17;;
5549;SDS011;2798;42.716;23.256;2023-04-03T02:25:52;5.17;;;2.63;;
5549;SDS011;2798;42.716;23.256;2023-04-03T02:28:17;2.80;;;2.60;;
5549;SDS011;2798;42.716;23.256;2023-04-03T02:30:42;7.17;;;2.90;;
5549;SDS011;2798;42.716;23.256;2023-04-03T02:33:08;4.40;;;2.97;;
5549;SDS011;2798;42.716;23.256;2023-04-03T02:35:33;5.90;;;3.77;;
5549;SDS011;2798;42.716;23.256;2023-04-03T02:37:58;6.30;;;3.67;;
5549;SDS011;2798;42.716;23.256;2023-04-03T02:40:23;4.80;;;3.40;;
5549;SDS011;2798;42.716;23.256;2023-04-03T02:42:49;6.17;;;3.60;;
5549;SDS011;2798;42.716;23.256;2023-04-03T02:45:14;5.70;;;3.17;;
5549;SDS011;2798;42.716;23.256;2023-04-03T02:47:40;4.17;;;3.30;;
5549;SDS011;2798;42.716;23.256;2023-04-03T02:50:05;4.60;;;3.17;;
5549;SDS011;2798;42.716;23.256;2023-04-03T02:52:30;4.27;;;3.20;;
5549;SDS011;2798;42.716;23.256;2023-04-03T02:54:56;8.00;;;3.57;;
5549;SDS011;2798;42.716;23.256;2023-04-03T02:57:21;7.57;;;3.30;;
5549;SDS011;2798;42.716;23.256;2023-04-03T02:59:46;5.37;;;3.50;;
5549;SDS011;2798;42.716;23.256;2023-04-03T03:02:11;7.70;;;3.17;;
5549;SDS011;2798;42.716;23.256;2023-04-03T03:04:37;5.83;;;3.00;;
5549;SDS011;2798;42.716;23.256;2023-04-03T03:07:02;5.53;;;3.50;;
5549;SDS011;2798;42.716;23.256;2023-04-03T03:09:28;3.63;;;3.00;;
5549;SDS011;2798;42.716;23.256;2023-04-03T03:11:54;4.60;;;3.30;;
5549;SDS011;2798;42.716;23.256;2023-04-03T03:14:19;5.03;;;3.00;;
5549;SDS011;2798;42.716;23.256;2023-04-03T03:16:45;3.13;;;2.73;;
5549;SDS011;2798;42.716;23.256;2023-04-03T03:19:10;3.63;;;2.70;;
5549;SDS011;2798;42.716;23.256;2023-04-03T03:21:35;3.57;;;3.03;;
5549;SDS011;2798;42.716;23.256;2023-04-03T03:24:00;6.03;;;3.37;;
5549;SDS011;2798;42.716;23.256;2023-04-03T03:26:26;3.50;;;2.63;;
5549;SDS011;2798;42.716;23.256;2023-04-03T03:28:51;4.47;;;3.10;;
5549;SDS011;2798;42.716;23.256;2023-04-03T03:31:16;6.57;;;3.60;;
5549;SDS011;2798;42.716;23.256;2023-04-03T03:33:42;4.53;;;3.20;;
5549;SDS011;2798;42.716;23.256;2023-04-03T03:36:07;5.83;;;3.57;;
5549;SDS011;2798;42.716;23.256;2023-04-03T03:38:32;5.13;;;3.90;;
5549;SDS011;2798;42.716;23.256;2023-04-03T03:40:57;4.23;;;3.50;;
5549;SDS011;2798;42.716;23.256;2023-04-03T03:43:23;6.13;;;3.93;;
5549;SDS011;2798;42.716;23.256;2023-04-03T03:45:52;6.87;;;4.33;;
5549;SDS011;2798;42.716;23.256;2023-04-03T03:48:17;5.43;;;3.87;;
5549;SDS011;2798;42.716;23.256;2023-04-03T03:50:43;17.03;;;8.77;;
5549;SDS011;2798;42.716;23.256;2023-04-03T03:53:08;25.43;;;12.00;;
5549;SDS011;2798;42.716;23.256;2023-04-03T03:55:33;29.30;;;14.10;;
5549;SDS011;2798;42.716;23.256;2023-04-03T03:57:58;30.27;;;12.73;;
5549;SDS011;2798;42.716;23.256;2023-04-03T04:00:26;24.40;;;11.93;;
5549;SDS011;2798;42.716;23.256;2023-04-03T04:02:51;28.77;;;11.03;;
5549;SDS011;2798;42.716;23.256;2023-04-03T04:05:17;20.03;;;10.20;;
5549;SDS011;2798;42.716;23.256;2023-04-03T04:07:42;15.50;;;8.90;;
5549;SDS011;2798;42.716;23.256;2023-04-03T04:10:07;15.87;;;7.80;;
5549;SDS011;2798;42.716;23.256;2023-04-03T04:12:33;15.93;;;7.23;;
5549;SDS011;2798;42.716;23.256;2023-04-03T04:15:00;11.23;;;7.07;;
5549;SDS011;2798;42.716;23.256;2023-04-03T04:17:25;11.97;;;6.70;;
5549;SDS011;2798;42.716;23.256;2023-04-03T04:19:51;10.87;;;6.27;;
5549;SDS011;2798;42.716;23.256;2023-04-03T04:22:16;11.83;;;6.90;;
5549;SDS011;2798;42.716;23.256;2023-04-03T04:24:41;12.30;;;6.27;;
5549;SDS011;2798;42.716;23.256;2023-04-03T04:27:06;15.27;;;6.33;;
5549;SDS011;2798;42.716;23.256;2023-04-03T04:29:31;12.40;;;4.83;;
5549;SDS011;2798;42.716;23.256;2023-04-03T04:32:01;14.93;;;6.00;;
5549;SDS011;2798;42.716;23.256;2023-04-03T04:34:26;10.00;;;5.87;;
5549;SDS011;2798;42.716;23.256;2023-04-03T04:36:51;8.57;;;5.03;;
5549;SDS011;2798;42.716;23.256;2023-04-03T04:39:17;8.17;;;5.50;;
5549;SDS011;2798;42.716;23.256;2023-04-03T04:41:42;7.13;;;5.03;;
5549;SDS011;2798;42.716;23.256;2023-04-03T04:44:07;10.73;;;5.00;;
5549;SDS011;2798;42.716;23.256;2023-04-03T04:46:33;8.03;;;5.00;;
5549;SDS011;2798;42.716;23.256;2023-04-03T04:48:58;8.67;;;4.30;;
5549;SDS011;2798;42.716;23.256;2023-04-03T04:51:23;7.37;;;4.67;;
5549;SDS011;2798;42.716;23.256;2023-04-03T04:53:49;8.07;;;4.50;;
5549;SDS011;2798;42.716;23.256;2023-04-03T04:56:14;4.37;;;3.27;;
5549;SDS011;2798;42.716;23.256;2023-04-03T04:58:40;5.50;;;3.33;;
5549;SDS011;2798;42.716;23.256;2023-04-03T05:01:06;8.20;;;4.00;;
5549;SDS011;2798;42.716;23.256;2023-04-03T05:03:32;7.43;;;4.10;;
5549;SDS011;2798;42.716;23.256;2023-04-03T05:05:57;8.03;;;3.90;;
5549;SDS011;2798;42.716;23.256;2023-04-03T05:08:22;7.57;;;3.53;;
5549;SDS011;2798;42.716;23.256;2023-04-03T05:10:48;7.97;;;3.80;;
5549;SDS011;2798;42.716;23.256;2023-04-03T05:13:13;11.40;;;4.20;;
5549;SDS011;2798;42.716;23.256;2023-04-03T05:15:38;9.10;;;4.80;;
5549;SDS011;2798;42.716;23.256;2023-04-03T05:18:04;10.50;;;4.37;;
5549;SDS011;2798;42.716;23.256;2023-04-03T05:20:30;11.00;;;4.87;;
5549;SDS011;2798;42.716;23.256;2023-04-03T05:22:55;13.43;;;5.33;;
5549;SDS011;2798;42.716;23.256;2023-04-03T05:25:21;11.77;;;5.97;;
5549;SDS011;2798;42.716;23.256;2023-04-03T05:27:46;10.20;;;5.90;;
5549;SDS011;2798;42.716;23.256;2023-04-03T05:30:11;23.00;;;5.50;;
5549;SDS011;2798;42.716;23.256;2023-04-03T05:32:37;18.13;;;6.30;;
5549;SDS011;2798;42.716;23.256;2023-04-03T05:35:02;15.93;;;7.17;;
5549;SDS011;2798;42.716;23.256;2023-04-03T05:37:27;14.87;;;5.53;;
5549;SDS011;2798;42.716;23.256;2023-04-03T05:39:53;22.90;;;7.60;;
5549;SDS011;2798;42.716;23.256;2023-04-03T05:42:18;26.13;;;7.80;;
5549;SDS011;2798;42.716;23.256;2023-04-03T05:44:43;13.00;;;5.10;;
5549;SDS011;2798;42.716;23.256;2023-04-03T05:47:09;9.83;;;6.13;;
5549;SDS011;2798;42.716;23.256;2023-04-03T05:49:34;13.17;;;5.87;;
5549;SDS011;2798;42.716;23.256;2023-04-03T05:52:00;13.40;;;6.40;;
5549;SDS011;2798;42.716;23.256;2023-04-03T05:54:26;11.70;;;5.93;;
5549;SDS011;2798;42.716;23.256;2023-04-03T05:56:52;9.03;;;5.93;;
5549;SDS011;2798;42.716;23.256;2023-04-03T05:59:17;10.03;;;5.60;;
5549;SDS011;2798;42.716;23.256;2023-04-03T06:01:43;14.07;;;6.80;;
5549;SDS011;2798;42.716;23.256;2023-04-03T06:04:08;11.40;;;6.07;;
5549;SDS011;2798;42.716;23.256;2023-04-03T06:09:08;11.67;;;5.63;;
5549;SDS011;2798;42.716;23.256;2023-04-03T06:11:34;9.20;;;4.77;;
5549;SDS011;2798;42.716;23.256;2023-04-03T06:14:00;8.13;;;3.83;;
5549;SDS011;2798;42.716;23.256;2023-04-03T06:16:25;6.40;;;4.00;;
5549;SDS011;2798;42.716;23.256;2023-04-03T06:18:50;6.60;;;3.97;;
5549;SDS011;2798;42.716;23.256;2023-04-03T06:21:16;5.23;;;2.97;;
5549;SDS011;2798;42.716;23.256;2023-04-03T06:23:41;4.63;;;3.27;;
5549;SDS011;2798;42.716;23.256;2023-04-03T06:26:06;11.00;;;3.37;;
5549;SDS011;2798;42.716;23.256;2023-04-03T06:28:32;5.13;;;3.63;;
5549;SDS011;2798;42.716;23.256;2023-04-03T06:30:57;6.73;;;4.47;;
5549;SDS011;2798;42.716;23.256;2023-04-03T06:33:22;7.50;;;4.00;;
5549;SDS011;2798;42.716;23.256;2023-04-03T06:35:48;9.33;;;4.43;;
5549;SDS011;2798;42.716;23.256;2023-04-03T06:38:13;8.97;;;5.27;;
5549;SDS011;2798;42.716;23.256;2023-04-03T06:40:38;9.23;;;5.23;;
5549;SDS011;2798;42.716;23.256;2023-04-03T06:43:04;7.50;;;5.30;;
5549;SDS011;2798;42.716;23.256;2023-04-03T06:45:30;8.57;;;5.17;;
5549;SDS011;2798;42.716;23.256;2023-04-03T06:47:55;9.23;;;4.97;;
5549;SDS011;2798;42.716;23.256;2023-04-03T06:50:20;12.43;;;5.50;;
5549;SDS011;2798;42.716;23.256;2023-04-03T06:52:46;9.23;;;5.47;;
5549;SDS011;2798;42.716;23.256;2023-04-03T06:55:11;8.03;;;4.77;;
5549;SDS011;2798;42.716;23.256;2023-04-03T06:57:36;8.10;;;4.93;;
5549;SDS011;2798;42.716;23.256;2023-04-03T07:00:03;6.90;;;4.90;;
5549;SDS011;2798;42.716;23.256;2023-04-03T07:02:30;7.33;;;5.43;;
5549;SDS011;2798;42.716;23.256;2023-04-03T07:04:55;8.30;;;5.00;;
5549;SDS011;2798;42.716;23.256;2023-04-03T07:07:20;6.63;;;4.90;;
5549;SDS011;2798;42.716;23.256;2023-04-03T07:09:46;7.30;;;4.80;;
5549;SDS011;2798;42.716;23.256;2023-04-03T07:12:12;8.50;;;5.07;;
5549;SDS011;2798;42.716;23.256;2023-04-03T07:14:38;6.43;;;4.73;;
5549;SDS011;2798;42.716;23.256;2023-04-03T07:17:03;7.70;;;4.60;;
5549;SDS011;2798;42.716;23.256;2023-04-03T07:19:28;6.80;;;4.70;;
5549;SDS011;2798;42.716;23.256;2023-04-03T07:21:54;5.20;;;4.23;;
5549;SDS011;2798;42.716;23.256;2023-04-03T07:24:20;5.57;;;3.97;;
5549;SDS011;2798;42.716;23.256;2023-04-03T07:26:48;7.73;;;4.80;;
5549;SDS011;2798;42.716;23.256;2023-04-03T07:29:14;10.63;;;4.57;;
5549;SDS011;2798;42.716;23.256;2023-04-03T07:31:39;8.97;;;4.57;;
5549;SDS011;2798;42.716;23.256;2023-04-03T07:34:06;10.23;;;4.30;;
5549;SDS011;2798;42.716;23.256;2023-04-03T07:36:31;7.00;;;4.23;;
5549;SDS011;2798;42.716;23.256;2023-04-03T07:38:58;7.97;;;3.80;;
5549;SDS011;2798;42.716;23.256;2023-04-03T07:41:23;5.17;;;4.30;;
5549;SDS011;2798;42.716;23.256;2023-04-03T07:43:49;6.27;;;3.80;;
5549;SDS011;2798;42.716;23.256;2023-04-03T07:46:15;11.53;;;4.20;;
5549;SDS011;2798;42.716;23.256;2023-04-03T07:48:40;6.33;;;3.37;;
5549;SDS011;2798;42.716;23.256;2023-04-03T07:51:06;6.03;;;3.87;;
5549;SDS011;2798;42.716;23.256;2023-04-03T07:53:31;5.70;;;3.50;;
5549;SDS011;2798;42.716;23.256;2023-04-03T07:55:57;5.10;;;3.53;;
5549;SDS011;2798;42.716;23.256;2023-04-03T07:58:23;7.70;;;3.63;;
5549;SDS011;2798;42.716;23.256;2023-04-03T08:00:48;14.63;;;3.83;;
5549;SDS011;2798;42.716;23.256;2023-04-03T08:03:14;6.73;;;3.80;;
5549;SDS011;2798;42.716;23.256;2023-04-03T08:05:41;5.90;;;3.50;;
5549;SDS011;2798;42.716;23.256;2023-04-03T08:08:07;6.07;;;3.67;;
5549;SDS011;2798;42.716;23.256;2023-04-03T08:10:33;7.80;;;3.53;;
5549;SDS011;2798;42.716;23.256;2023-04-03T08:12:59;148.60;;;48.23;;
5549;SDS011;2798;42.716;23.256;2023-04-03T08:15:24;308.43;;;99.10;;
5549;SDS011;2798;42.716;23.256;2023-04-03T08:17:49;235.57;;;79.80;;
5549;SDS011;2798;42.716;23.256;2023-04-03T08:20:15;175.57;;;56.33;;
5549;SDS011;2798;42.716;23.256;2023-04-03T08:22:41;124.83;;;43.47;;
5549;SDS011;2798;42.716;23.256;2023-04-03T08:25:06;101.57;;;35.37;;
5549;SDS011;2798;42.716;23.256;2023-04-03T08:27:32;61.73;;;24.67;;
5549;SDS011;2798;42.716;23.256;2023-04-03T08:29:57;46.13;;;17.70;;
5549;SDS011;2798;42.716;23.256;2023-04-03T08:32:22;34.80;;;14.60;;
5549;SDS011;2798;42.716;23.256;2023-04-03T08:34:48;27.17;;;12.23;;
5549;SDS011;2798;42.716;23.256;2023-04-03T08:37:13;27.37;;;11.90;;
5549;SDS011;2798;42.716;23.256;2023-04-03T08:39:38;19.20;;;9.90;;
5549;SDS011;2798;42.716;23.256;2023-04-03T08:42:05;19.13;;;9.93;;
5549;SDS011;2798;42.716;23.256;2023-04-03T08:50:25;20.73;;;8.20;;
5549;SDS011;2798;42.716;23.256;2023-04-03T08:52:52;14.20;;;7.67;;
5549;SDS011;2798;42.716;23.256;2023-04-03T08:57:47;15.60;;;6.40;;
5549;SDS011;2798;42.716;23.256;2023-04-03T09:02:49;10.10;;;5.80;;
5549;SDS011;2798;42.716;23.256;2023-04-03T09:05:19;13.10;;;6.03;;
5549;SDS011;2798;42.716;23.256;2023-04-03T09:07:46;12.53;;;6.53;;
5549;SDS011;2798;42.716;23.256;2023-04-03T09:10:13;10.80;;;6.50;;
5549;SDS011;2798;42.716;23.256;2023-04-03T09:12:39;12.13;;;6.20;;
5549;SDS011;2798;42.716;23.256;2023-04-03T09:17:42;8.70;;;6.17;;
5549;SDS011;2798;42.716;23.256;2023-04-03T09:22:48;9.40;;;5.73;;
5549;SDS011;2798;42.716;23.256;2023-04-03T09:25:20;12.43;;;6.70;;
5549;SDS011;2798;42.716;23.256;2023-04-03T09:27:46;13.27;;;6.60;;
5549;SDS011;2798;42.716;23.256;2023-04-03T09:30:16;11.03;;;6.97;;
5549;SDS011;2798;42.716;23.256;2023-04-03T09:32:43;13.67;;;7.50;;
5549;SDS011;2798;42.716;23.256;2023-04-03T09:35:19;10.90;;;7.63;;
5549;SDS011;2798;42.716;23.256;2023-04-03T09:37:46;10.97;;;8.03;;
5549;SDS011;2798;42.716;23.256;2023-04-03T09:42:49;19.20;;;9.23;;
5549;SDS011;2798;42.716;23.256;2023-04-03T09:45:25;16.33;;;8.73;;
5549;SDS011;2798;42.716;23.256;2023-04-03T09:48:07;11.73;;;8.00;;
5549;SDS011;2798;42.716;23.256;2023-04-03T09:50:34;21.97;;;8.57;;
5549;SDS011;2798;42.716;23.256;2023-04-03T09:53:04;19.03;;;7.87;;
5549;SDS011;2798;42.716;23.256;2023-04-03T09:55:30;10.80;;;8.30;;
5549;SDS011;2798;42.716;23.256;2023-04-03T09:58:04;20.20;;;7.70;;
5549;SDS011;2798;42.716;23.256;2023-04-03T10:00:34;13.47;;;7.47;;
5549;SDS011;2798;42.716;23.256;2023-04-03T10:03:00;15.30;;;7.30;;
5549;SDS011;2798;42.716;23.256;2023-04-03T10:08:07;12.00;;;8.10;;
5549;SDS011;2798;42.716;23.256;2023-04-03T10:10:32;16.57;;;8.70;;
5549;SDS011;2798;42.716;23.256;2023-04-03T10:13:05;14.73;;;8.53;;
5549;SDS011;2798;42.716;23.256;2023-04-03T10:15:32;17.53;;;8.20;;
5549;SDS011;2798;42.716;23.256;2023-04-03T10:18:02;11.70;;;7.80;;
5549;SDS011;2798;42.716;23.256;2023-04-03T10:28:01;11.83;;;7.37;;
5549;SDS011;2798;42.716;23.256;2023-04-03T10:36:01;17.10;;;6.80;;
5549;SDS011;2798;42.716;23.256;2023-04-03T10:38:15;13.03;;;6.60;;
5549;SDS011;2798;42.716;23.256;2023-04-03T10:40:55;7.83;;;5.90;;
5549;SDS011;2798;42.716;23.256;2023-04-03T10:52:20;9.90;;;5.70;;
5549;SDS011;2798;42.716;23.256;2023-04-03T10:54:25;8.03;;;5.10;;
5549;SDS011;2798;42.716;23.256;2023-04-03T10:56:55;7.70;;;4.57;;
5549;SDS011;2798;42.716;23.256;2023-04-03T10:59:25;6.00;;;4.20;;
5549;SDS011;2798;42.716;23.256;2023-04-03T11:01:59;7.03;;;4.67;;
5549;SDS011;2798;42.716;23.256;2023-04-03T11:04:27;5.50;;;3.90;;
5549;SDS011;2798;42.716;23.256;2023-04-03T11:06:57;6.50;;;4.00;;
5549;SDS011;2798;42.716;23.256;2023-04-03T11:11:49;6.80;;;4.17;;
5549;SDS011;2798;42.716;23.256;2023-04-03T11:14:26;6.33;;;3.90;;
5549;SDS011;2798;42.716;23.256;2023-04-03T11:16:59;5.60;;;3.10;;
5549;SDS011;2798;42.716;23.256;2023-04-03T11:22:00;6.27;;;3.83;;
5549;SDS011;2798;42.716;23.256;2023-04-03T11:24:29;6.77;;;3.30;;
5549;SDS011;2798;42.716;23.256;2023-04-03T11:26:56;7.33;;;3.60;;
5549;SDS011;2798;42.716;23.256;2023-04-03T11:29:24;6.83;;;3.60;;
5549;SDS011;2798;42.716;23.256;2023-04-03T11:37:04;8.70;;;4.23;;
5549;SDS011;2798;42.716;23.256;2023-04-03T11:39:31;5.97;;;3.50;;
5549;SDS011;2798;42.716;23.256;2023-04-03T11:42:21;3.30;;;3.00;;
5549;SDS011;2798;42.716;23.256;2023-04-03T11:44:50;4.33;;;3.23;;
5549;SDS011;2798;42.716;23.256;2023-04-03T11:50:00;4.90;;;3.83;;
5549;SDS011;2798;42.716;23.256;2023-04-03T12:11:34;3.83;;;2.63;;
5549;SDS011;2798;42.716;23.256;2023-04-03T12:13:39;4.40;;;2.80;;
5549;SDS011;2798;42.716;23.256;2023-04-03T12:16:09;3.60;;;2.60;;
5549;SDS011;2798;42.716;23.256;2023-04-03T12:21:15;3.37;;;2.57;;
5549;SDS011;2798;42.716;23.256;2023-04-03T12:31:45;3.90;;;2.57;;
5549;SDS011;2798;42.716;23.256;2023-04-03T12:34:15;4.20;;;2.33;;
5549;SDS011;2798;42.716;23.256;2023-04-03T12:37:16;2.87;;;2.23;;
5549;SDS011;2798;42.716;23.256;2023-04-03T12:39:36;3.50;;;2.53;;
5549;SDS011;2798;42.716;23.256;2023-04-03T12:44:38;5.80;;;2.47;;
5549;SDS011;2798;42.716;23.256;2023-04-03T12:47:18;3.63;;;2.53;;
5549;SDS011;2798;42.716;23.256;2023-04-03T12:49:44;4.43;;;2.60;;
5549;SDS011;2798;42.716;23.256;2023-04-03T12:52:18;3.17;;;2.17;;
5549;SDS011;2798;42.716;23.256;2023-04-03T12:54:45;3.00;;;1.97;;
5549;SDS011;2798;42.716;23.256;2023-04-03T12:57:18;4.40;;;2.23;;
5549;SDS011;2798;42.716;23.256;2023-04-03T12:59:44;2.60;;;2.00;;
5549;SDS011;2798;42.716;23.256;2023-04-03T13:02:29;4.13;;;2.40;;
5549;SDS011;2798;42.716;23.256;2023-04-03T13:04:56;3.57;;;2.83;;
5549;SDS011;2798;42.716;23.256;2023-04-03T13:07:30;5.00;;;2.83;;
5549;SDS011;2798;42.716;23.256;2023-04-03T13:12:29;2.83;;;2.53;;
5549;SDS011;2798;42.716;23.256;2023-04-03T13:15:03;3.87;;;2.57;;
5549;SDS011;2798;42.716;23.256;2023-04-03T13:17:38;3.93;;;2.77;;
5549;SDS011;2798;42.716;23.256;2023-04-03T13:20:15;3.63;;;2.57;;
5549;SDS011;2798;42.716;23.256;2023-04-03T13:22:46;2.97;;;2.70;;
5549;SDS011;2798;42.716;23.256;2023-04-03T13:25:13;3.70;;;2.90;;
5549;SDS011;2798;42.716;23.256;2023-04-03T13:27:39;3.70;;;3.40;;
5549;SDS011;2798;42.716;23.256;2023-04-03T13:30:17;3.83;;;2.63;;
5549;SDS011;2798;42.716;23.256;2023-04-03T13:32:45;4.63;;;3.20;;
5549;SDS011;2798;42.716;23.256;2023-04-03T13:37:55;5.90;;;3.30;;
5549;SDS011;2798;42.716;23.256;2023-04-03T13:40:20;7.20;;;3.67;;
5549;SDS011;2798;42.716;23.256;2023-04-03T13:42:45;6.77;;;3.70;;
5549;SDS011;2798;42.716;23.256;2023-04-03T13:45:24;7.07;;;3.23;;
5549;SDS011;2798;42.716;23.256;2023-04-03T13:47:53;5.37;;;3.77;;
5549;SDS011;2798;42.716;23.256;2023-04-03T13:50:28;4.13;;;3.10;;
5549;SDS011;2798;42.716;23.256;2023-04-03T13:52:59;4.67;;;3.27;;
5549;SDS011;2798;42.716;23.256;2023-04-03T13:55:33;3.93;;;2.80;;
5549;SDS011;2798;42.716;23.256;2023-04-03T14:02:58;4.93;;;2.70;;
5549;SDS011;2798;42.716;23.256;2023-04-03T14:05:24;5.20;;;3.00;;
5549;SDS011;2798;42.716;23.256;2023-04-03T14:07:50;4.20;;;3.00;;
5549;SDS011;2798;42.716;23.256;2023-04-03T14:10:16;5.10;;;3.57;;
5549;SDS011;2798;42.716;23.256;2023-04-03T14:12:41;6.43;;;3.30;;
5549;SDS011;2798;42.716;23.256;2023-04-03T14:15:20;5.87;;;3.30;;
5549;SDS011;2798;42.716;23.256;2023-04-03T14:17:48;5.07;;;3.90;;
5549;SDS011;2798;42.716;23.256;2023-04-03T14:20:17;6.40;;;3.60;;
5549;SDS011;2798;42.716;23.256;2023-04-03T14:22:42;5.50;;;3.50;;
5549;SDS011;2798;42.716;23.256;2023-04-03T14:25:07;9.73;;;3.60;;
5549;SDS011;2798;42.716;23.256;2023-04-03T14:27:34;5.57;;;3.77;;
5549;SDS011;2798;42.716;23.256;2023-04-03T14:30:00;5.90;;;4.30;;
5549;SDS011;2798;42.716;23.256;2023-04-03T14:32:28;5.80;;;3.73;;
5549;SDS011;2798;42.716;23.256;2023-04-03T14:34:54;6.20;;;3.90;;
5549;SDS011;2798;42.716;23.256;2023-04-03T14:37:21;8.13;;;4.90;;
5549;SDS011;2798;42.716;23.256;2023-04-03T14:39:48;6.60;;;4.83;;
5549;SDS011;2798;42.716;23.256;2023-04-03T14:42:14;6.97;;;4.70;;
5549;SDS011;2798;42.716;23.256;2023-04-03T14:44:40;4.23;;;3.60;;
5549;SDS011;2798;42.716;23.256;2023-04-03T14:47:08;5.50;;;3.67;;
5549;SDS011;2798;42.716;23.256;2023-04-03T14:49:34;3.87;;;3.40;;
5549;SDS011;2798;42.716;23.256;2023-04-03T14:51:59;5.20;;;3.20;;
5549;SDS011;2798;42.716;23.256;2023-04-03T14:54:24;4.50;;;3.60;;
5549;SDS011;2798;42.716;23.256;2023-04-03T14:56:54;4.00;;;3.60;;
5549;SDS011;2798;42.716;23.256;2023-04-03T14:59:20;3.40;;;2.93;;
5549;SDS011;2798;42.716;23.256;2023-04-03T15:01:46;4.00;;;3.60;;
5549;SDS011;2798;42.716;23.256;2023-04-03T15:04:13;5.97;;;4.30;;
5549;SDS011;2798;42.716;23.256;2023-04-03T15:06:38;4.10;;;3.63;;
5549;SDS011;2798;42.716;23.256;2023-04-03T15:09:04;4.70;;;3.90;;
5549;SDS011;2798;42.716;23.256;2023-04-03T15:11:29;3.93;;;3.23;;
5549;SDS011;2798;42.716;23.256;2023-04-03T15:13:54;4.10;;;3.10;;
5549;SDS011;2798;42.716;23.256;2023-04-03T15:16:20;3.70;;;3.27;;
5549;SDS011;2798;42.716;23.256;2023-04-03T15:18:46;5.90;;;3.30;;
5549;SDS011;2798;42.716;23.256;2023-04-03T15:21:12;4.83;;;3.53;;
5549;SDS011;2798;42.716;23.256;2023-04-03T15:23:37;3.50;;;3.20;;
5549;SDS011;2798;42.716;23.256;2023-04-03T15:26:03;3.10;;;2.80;;
5549;SDS011;2798;42.716;23.256;2023-04-03T15:30:53;3.50;;;3.20;;
5549;SDS011;2798;42.716;23.256;2023-04-03T15:33:20;3.83;;;3.20;;
5549;SDS011;2798;42.716;23.256;2023-04-03T15:35:45;5.70;;;3.07;;
5549;SDS011;2798;42.716;23.256;2023-04-03T15:38:11;6.10;;;3.33;;
5549;SDS011;2798;42.716;23.256;2023-04-03T15:40:36;10.00;;;2.73;;
5549;SDS011;2798;42.716;23.256;2023-04-03T15:43:02;3.90;;;2.80;;
5549;SDS011;2798;42.716;23.256;2023-04-03T15:45:30;4.80;;;3.03;;
5549;SDS011;2798;42.716;23.256;2023-04-03T15:47:56;2.93;;;2.43;;
5549;SDS011;2798;42.716;23.256;2023-04-03T15:50:21;3.00;;;2.70;;
5549;SDS011;2798;42.716;23.256;2023-04-03T15:52:48;3.00;;;2.67;;
5549;SDS011;2798;42.716;23.256;2023-04-03T15:55:19;4.43;;;2.70;;
5549;SDS011;2798;42.716;23.256;2023-04-03T15:57:44;5.20;;;2.93;;
5549;SDS011;2798;42.716;23.256;2023-04-03T16:00:10;5.07;;;4.03;;
5549;SDS011;2798;42.716;23.256;2023-04-03T16:02:35;7.00;;;3.77;;
5549;SDS011;2798;42.716;23.256;2023-04-03T16:05:00;6.03;;;3.50;;
5549;SDS011;2798;42.716;23.256;2023-04-03T16:07:27;3.60;;;3.23;;
5549;SDS011;2798;42.716;23.256;2023-04-03T16:09:52;5.57;;;3.40;;
5549;SDS011;2798;42.716;23.256;2023-04-03T16:12:18;4.30;;;3.23;;
5549;SDS011;2798;42.716;23.256;2023-04-03T16:14:43;5.43;;;3.00;;
5549;SDS011;2798;42.716;23.256;2023-04-03T16:17:08;3.63;;;2.90;;
5549;SDS011;2798;42.716;23.256;2023-04-03T16:19:33;3.30;;;2.87;;
5549;SDS011;2798;42.716;23.256;2023-04-03T16:21:59;3.83;;;3.13;;
5549;SDS011;2798;42.716;23.256;2023-04-03T16:24:24;3.90;;;3.13;;
5549;SDS011;2798;42.716;23.256;2023-04-03T16:26:50;8.20;;;3.87;;
5549;SDS011;2798;42.716;23.256;2023-04-03T16:29:15;5.60;;;3.37;;
5549;SDS011;2798;42.716;23.256;2023-04-03T16:31:40;3.90;;;3.30;;
5549;SDS011;2798;42.716;23.256;2023-04-03T16:34:06;4.37;;;3.10;;
5549;SDS011;2798;42.716;23.256;2023-04-03T16:36:31;5.70;;;3.30;;
5549;SDS011;2798;42.716;23.256;2023-04-03T16:38:56;3.70;;;3.37;;
5549;SDS011;2798;42.716;23.256;2023-04-03T16:41:21;3.47;;;3.00;;
5549;SDS011;2798;42.716;23.256;2023-04-03T16:43:47;3.73;;;2.80;;